Time;durP1;ratioP1;P1;durP2;ratioP2;P2;SDS_P1;SDS_P2;PMS_P1;PMS_P2;Temp;Humidity;BMP_temperature;BMP_pressure;BME280_temperature;BME280_humidity;BME280_pressure;Samples;Min_cycle;Max_cycle;Signal;HPM_P1;HPM_P2
2021/07/26 00:00:01;;;;;;;37.30;23.98;;;;;;;;;;5058356;28;20182;-83
2021/07/26 00:02:30;;;;;;;36.95;20.20;;;;;;;;;;5057054;28;20046;-83
2021/07/26 00:04:59;;;;;;;32.45;18.50;;;;;;;;;;5056538;28;20043;-84
2021/07/26 00:07:27;;;;;;;28.02;17.27;;;;;;;;;;5045916;28;20054;-79
2021/07/26 00:09:54;;;;;;;32.80;18.65;;;;;;;;;;5060919;28;20394;-78
2021/07/26 00:12:21;;;;;;;28.00;20.45;;;;;;;;;;5065864;28;20036;-79
2021/07/26 00:14:48;;;;;;;32.28;19.13;;;;;;;;;;5084407;28;20128;-78
2021/07/26 00:17:15;;;;;;;31.73;20.52;;;;;;;;;;5084392;28;20114;-77
2021/07/26 00:19:42;;;;;;;36.08;18.73;;;;;;;;;;5072687;28;20058;-80
2021/07/26 00:22:09;;;;;;;38.13;19.42;;;;;;;;;;5091248;28;20039;-77
2021/07/26 00:24:35;;;;;;;41.67;19.98;;;;;;;;;;5088033;28;20076;-78
2021/07/26 00:27:02;;;;;;;32.03;18.70;;;;;;;;;;5077714;28;20143;-78
2021/07/26 00:29:29;;;;;;;39.33;19.17;;;;;;;;;;5074382;28;20140;-77
2021/07/26 00:31:56;;;;;;;38.33;18.77;;;;;;;;;;5092551;28;20402;-78
2021/07/26 00:34:27;;;;;;;34.88;20.63;;;;;;;;;;5086780;28;20036;-79
2021/07/26 00:36:58;;;;;;;40.72;19.98;;;;;;;;;;5086812;28;20056;-80
2021/07/26 00:39:27;;;;;;;39.60;20.17;;;;;;;;;;5042105;28;20032;-80
2021/07/26 00:41:55;;;;;;;38.30;20.25;;;;;;;;;;5042831;28;20048;-78
2021/07/26 00:44:24;;;;;;;37.53;20.75;;;;;;;;;;5027283;28;20500;-79
2021/07/26 00:46:53;;;;;;;35.53;19.95;;;;;;;;;;5027620;28;20513;-79
2021/07/26 00:49:21;;;;;;;36.75;20.17;;;;;;;;;;5036928;28;20212;-78
2021/07/26 00:51:51;;;;;;;38.63;19.45;;;;;;;;;;5069539;28;20108;-78
2021/07/26 00:54:25;;;;;;;40.67;21.77;;;;;;;;;;5066261;28;20505;-79
2021/07/26 00:56:54;;;;;;;41.67;21.13;;;;;;;;;;5070185;28;20036;-78
2021/07/26 00:59:23;;;;;;;48.00;21.13;;;;;;;;;;5049105;28;20419;-78
2021/07/26 01:01:49;;;;;;;;;;;;;;;;;;5049774;28;20521;-77
2021/07/26 01:04:15;;;;;;;48.08;23.00;;;;;;;;;;5062255;28;19916;-77
2021/07/26 01:06:43;;;;;;;43.72;22.23;;;;;;;;;;5059602;28;20457;-77
2021/07/26 01:09:10;;;;;;;37.75;22.15;;;;;;;;;;5044179;28;20127;-81
2021/07/26 01:11:37;;;;;;;46.42;19.15;;;;;;;;;;5055923;28;20044;-77
2021/07/26 01:14:04;;;;;;;42.40;19.98;;;;;;;;;;5073317;28;20494;-78
2021/07/26 01:16:31;;;;;;;38.03;18.15;;;;;;;;;;5060718;28;20119;-78
2021/07/26 01:19:01;;;;;;;32.40;18.02;;;;;;;;;;5068842;28;20047;-78
2021/07/26 01:21:30;;;;;;;39.33;18.90;;;;;;;;;;5066411;28;20044;-79
2021/07/26 01:23:58;;;;;;;37.13;18.73;;;;;;;;;;5074082;28;20040;-78
2021/07/26 01:26:26;;;;;;;33.40;18.77;;;;;;;;;;5051461;28;20048;-84
2021/07/26 01:28:56;;;;;;;29.48;18.58;;;;;;;;;;5046438;28;20040;-81
2021/07/26 01:31:25;;;;;;;22.40;15.10;;;;;;;;;;5062712;28;20044;-78
2021/07/26 01:33:52;;;;;;;40.90;19.05;;;;;;;;;;5073362;28;22000;-79
2021/07/26 01:36:24;;;;;;;32.17;18.88;;;;;;;;;;5056458;28;20098;-79
2021/07/26 01:38:54;;;;;;;45.33;21.60;;;;;;;;;;5060628;28;20092;-87
2021/07/26 01:41:23;;;;;;;44.70;21.17;;;;;;;;;;5069287;28;20044;-78
2021/07/26 01:44:04;;;;;;;40.75;21.58;;;;;;;;;;5058238;28;20044;-78
2021/07/26 01:47:04;;;;;;;38.30;21.25;;;;;;;;;;5046169;28;20055;-77
2021/07/26 01:49:39;;;;;;;34.15;20.75;;;;;;;;;;5064641;28;20056;-79
2021/07/26 01:52:10;;;;;;;36.58;20.02;;;;;;;;;;5093614;28;20118;-83
2021/07/26 01:54:36;;;;;;;34.13;19.73;;;;;;;;;;5080416;28;20055;-78
2021/07/26 01:57:03;;;;;;;39.63;20.88;;;;;;;;;;5098642;28;20570;-78
2021/07/26 01:59:31;;;;;;;40.25;20.17;;;;;;;;;;5087963;28;20070;-88
2021/07/26 02:01:58;;;;;;;41.30;22.02;;;;;;;;;;5079809;28;20069;-77
2021/07/26 02:04:24;;;;;;;38.28;20.80;;;;;;;;;;5080928;28;20123;-78
2021/07/26 02:06:52;;;;;;;37.55;21.73;;;;;;;;;;5087735;28;20039;-86
2021/07/26 02:09:19;;;;;;;41.15;21.65;;;;;;;;;;5092163;28;20068;-79
2021/07/26 02:11:45;;;;;;;41.28;23.15;;;;;;;;;;5104937;28;20056;-79
2021/07/26 02:14:12;;;;;;;45.13;23.55;;;;;;;;;;5076885;28;20028;-84
2021/07/26 02:16:42;;;;;;;46.60;25.95;;;;;;;;;;5084637;28;20043;-77
2021/07/26 02:19:08;;;;;;;46.20;25.77;;;;;;;;;;5075633;28;20082;-80
2021/07/26 02:21:35;;;;;;;48.30;25.83;;;;;;;;;;5087774;28;20122;-78
2021/07/26 02:24:02;;;;;;;43.45;26.35;;;;;;;;;;5104054;28;20036;-86
2021/07/26 02:26:29;;;;;;;43.40;26.75;;;;;;;;;;5080726;28;20035;-79
2021/07/26 02:28:56;;;;;;;52.03;26.52;;;;;;;;;;5060942;28;20039;-84
2021/07/26 02:31:23;;;;;;;42.40;25.13;;;;;;;;;;5074810;28;20111;-83
2021/07/26 02:33:49;;;;;;;45.30;25.17;;;;;;;;;;5029070;28;20540;-82
2021/07/26 02:36:16;;;;;;;46.67;23.17;;;;;;;;;;5067650;28;20040;-89
2021/07/26 02:38:42;;;;;;;39.08;22.98;;;;;;;;;;5098431;28;20062;-80
2021/07/26 02:41:12;;;;;;;39.13;21.20;;;;;;;;;;5063152;28;20056;-83
2021/07/26 02:43:39;;;;;;;30.23;18.30;;;;;;;;;;5095263;28;20031;-83
2021/07/26 02:46:06;;;;;;;29.55;17.40;;;;;;;;;;5095588;28;20066;-87
2021/07/26 02:48:38;;;;;;;31.15;16.80;;;;;;;;;;5070046;28;20489;-84
2021/07/26 02:51:05;;;;;;;32.55;19.48;;;;;;;;;;5059604;28;20050;-83
2021/07/26 02:53:34;;;;;;;30.05;16.92;;;;;;;;;;5101378;28;20043;-80
2021/07/26 02:56:02;;;;;;;37.25;18.98;;;;;;;;;;5045830;28;20040;-79
2021/07/26 02:58:30;;;;;;;32.42;16.70;;;;;;;;;;5071034;28;20079;-80
2021/07/26 03:00:57;;;;;;;30.20;19.38;;;;;;;;;;5060332;28;20111;-81
2021/07/26 03:03:23;;;;;;;33.22;20.00;;;;;;;;;;5050424;28;20081;-83
2021/07/26 03:05:52;;;;;;;30.25;17.80;;;;;;;;;;5083413;28;20502;-83
2021/07/26 03:08:23;;;;;;;31.75;17.85;;;;;;;;;;5074091;28;20040;-81
2021/07/26 03:10:51;;;;;;;37.40;18.90;;;;;;;;;;5080032;28;20135;-85
2021/07/26 03:13:18;;;;;;;23.98;15.93;;;;;;;;;;5076355;28;21214;-96
2021/07/26 03:15:51;;;;;;;26.60;16.15;;;;;;;;;;5051134;28;20040;-95
2021/07/26 03:18:18;;;;;;;26.20;16.65;;;;;;;;;;5062954;28;20055;-95
2021/07/26 03:20:50;;;;;;;27.17;16.52;;;;;;;;;;5048734;28;20043;-96
2021/07/26 03:23:18;;;;;;;27.80;14.13;;;;;;;;;;5074560;28;20043;-91
2021/07/26 03:25:47;;;;;;;20.13;14.82;;;;;;;;;;5097893;28;20107;-90
2021/07/26 03:28:14;;;;;;;28.58;15.23;;;;;;;;;;5084902;28;20039;-92
2021/07/26 03:30:40;;;;;;;20.08;13.38;;;;;;;;;;5082640;28;20042;-90
2021/07/26 03:33:07;;;;;;;19.65;12.32;;;;;;;;;;5044670;28;20047;-90
2021/07/26 03:35:34;;;;;;;23.48;11.45;;;;;;;;;;5062882;28;20136;-91
2021/07/26 03:38:02;;;;;;;22.55;10.82;;;;;;;;;;5073531;28;20036;-87
2021/07/26 03:40:30;;;;;;;38.97;22.23;;;;;;;;;;5057316;28;20054;-90
2021/07/26 03:42:57;;;;;;;103.57;62.92;;;;;;;;;;5076858;28;20130;-89
2021/07/26 03:45:24;;;;;;;31.52;17.08;;;;;;;;;;5059835;28;20036;-90
2021/07/26 03:47:51;;;;;;;30.58;15.20;;;;;;;;;;5065337;28;20070;-92
2021/07/26 03:50:19;;;;;;;27.45;16.92;;;;;;;;;;5066350;28;20047;-88
2021/07/26 03:52:49;;;;;;;26.75;13.93;;;;;;;;;;5040573;28;20101;-93
2021/07/26 03:55:23;;;;;;;22.92;12.50;;;;;;;;;;5048535;28;20635;-91
2021/07/26 03:57:51;;;;;;;21.13;12.68;;;;;;;;;;5096223;28;20059;-91
2021/07/26 04:00:21;;;;;;;20.98;11.48;;;;;;;;;;5070040;28;20044;-92
2021/07/26 04:05:47;;;;;;;20.85;13.55;;;;;;;;;;5059120;28;20043;-90
2021/07/26 04:08:38;;;;;;;20.88;12.07;;;;;;;;;;5024995;28;20043;-91
2021/07/26 04:11:14;;;;;;;25.10;14.25;;;;;;;;;;5064294;28;20089;-91
2021/07/26 04:13:41;;;;;;;23.27;13.73;;;;;;;;;;5073767;28;20035;-90
2021/07/26 04:16:08;;;;;;;24.60;15.07;;;;;;;;;;5061759;28;20080;-91
2021/07/26 04:18:35;;;;;;;26.95;17.45;;;;;;;;;;5067282;28;20040;-92
2021/07/26 04:21:09;;;;;;;27.63;15.05;;;;;;;;;;5051181;28;20047;-91
2021/07/26 04:23:37;;;;;;;24.83;15.18;;;;;;;;;;5050870;28;20062;-91
2021/07/26 04:26:06;;;;;;;20.35;12.13;;;;;;;;;;5084697;28;20123;-92
2021/07/26 04:28:32;;;;;;;20.13;11.77;;;;;;;;;;5062747;28;20040;-91
2021/07/26 04:30:59;;;;;;;27.58;12.25;;;;;;;;;;5063332;28;20056;-91
2021/07/26 04:33:25;;;;;;;35.92;18.63;;;;;;;;;;5067618;28;20040;-90
2021/07/26 04:35:52;;;;;;;29.27;16.25;;;;;;;;;;5021032;28;20082;-89
2021/07/26 04:38:18;;;;;;;31.23;13.38;;;;;;;;;;5076723;28;20040;-90
2021/07/26 04:40:44;;;;;;;22.98;11.68;;;;;;;;;;5084766;28;20031;-90
2021/07/26 04:43:12;;;;;;;23.45;12.30;;;;;;;;;;5082329;28;22222;-90
2021/07/26 04:45:39;;;;;;;22.13;13.55;;;;;;;;;;5080383;28;20165;-91
2021/07/26 04:48:06;;;;;;;21.73;12.00;;;;;;;;;;5080727;28;20059;-90
2021/07/26 04:50:33;;;;;;;22.63;13.40;;;;;;;;;;5057931;28;20036;-90
2021/07/26 04:52:59;;;;;;;25.25;14.40;;;;;;;;;;5084386;28;20047;-91
2021/07/26 04:55:26;;;;;;;27.85;15.45;;;;;;;;;;5080289;28;20040;-90
2021/07/26 04:57:52;;;;;;;22.52;14.52;;;;;;;;;;5085230;28;20414;-90
2021/07/26 05:00:19;;;;;;;21.63;10.57;;;;;;;;;;5061125;28;20048;-91
2021/07/26 05:02:48;;;;;;;20.67;9.85;;;;;;;;;;5082964;28;20043;-89
2021/07/26 05:05:15;;;;;;;32.20;16.45;;;;;;;;;;5081034;28;20067;-89
2021/07/26 05:07:43;;;;;;;33.78;14.35;;;;;;;;;;5062193;28;20117;-90
2021/07/26 05:10:11;;;;;;;20.55;11.50;;;;;;;;;;5059461;28;20046;-90
2021/07/26 05:12:38;;;;;;;17.70;11.05;;;;;;;;;;5091401;28;20068;-90
2021/07/26 05:15:06;;;;;;;19.75;11.85;;;;;;;;;;5049178;28;20054;-90
2021/07/26 05:17:32;;;;;;;17.25;10.48;;;;;;;;;;5111779;27;20606;-91
2021/07/26 05:19:59;;;;;;;16.73;10.40;;;;;;;;;;5083124;28;20067;-90
2021/07/26 05:22:25;;;;;;;23.08;11.38;;;;;;;;;;5092867;28;20039;-91
2021/07/26 05:24:52;;;;;;;19.75;10.10;;;;;;;;;;5073118;28;20047;-89
2021/07/26 05:27:19;;;;;;;16.30;10.65;;;;;;;;;;5076351;28;20039;-91
2021/07/26 05:29:45;;;;;;;18.73;10.93;;;;;;;;;;5073369;28;20067;-90
2021/07/26 05:32:12;;;;;;;20.52;10.95;;;;;;;;;;5076193;28;20118;-91
2021/07/26 05:34:39;;;;;;;16.98;10.07;;;;;;;;;;5094099;28;20043;-91
2021/07/26 05:37:06;;;;;;;19.50;11.75;;;;;;;;;;5120099;28;20044;-89
2021/07/26 05:39:32;;;;;;;28.25;16.10;;;;;;;;;;5085356;28;20051;-90
2021/07/26 05:42:00;;;;;;;34.30;21.85;;;;;;;;;;5097453;28;20035;-91
2021/07/26 05:44:27;;;;;;;41.95;28.95;;;;;;;;;;5084346;28;20067;-90
2021/07/26 05:46:54;;;;;;;41.95;29.50;;;;;;;;;;5084281;28;20055;-90
2021/07/26 05:49:20;;;;;;;36.92;22.67;;;;;;;;;;5082786;28;20043;-90
2021/07/26 05:51:47;;;;;;;30.15;18.45;;;;;;;;;;5091262;28;20058;-91
2021/07/26 05:54:13;;;;;;;25.80;15.98;;;;;;;;;;5083669;28;20043;-90
2021/07/26 05:56:45;;;;;;;29.50;17.20;;;;;;;;;;5084811;28;20036;-91
2021/07/26 05:59:16;;;;;;;22.02;14.27;;;;;;;;;;5084322;28;20050;-91
2021/07/26 06:01:47;;;;;;;20.83;13.23;;;;;;;;;;5082554;28;20066;-90
2021/07/26 06:04:18;;;;;;;19.55;12.88;;;;;;;;;;5075199;28;20063;-89
2021/07/26 06:06:47;;;;;;;18.90;11.65;;;;;;;;;;5071422;28;20509;-91
2021/07/26 06:09:14;;;;;;;21.90;14.70;;;;;;;;;;5052171;28;20044;-89
2021/07/26 06:11:41;;;;;;;27.83;14.65;;;;;;;;;;5073417;28;20036;-91
2021/07/26 06:14:09;;;;;;;35.80;18.08;;;;;;;;;;5092969;28;20031;-91
2021/07/26 06:16:41;;;;;;;40.45;20.10;;;;;;;;;;5089012;28;20052;-91
2021/07/26 06:19:10;;;;;;;35.92;19.42;;;;;;;;;;5084521;28;20100;-91
2021/07/26 06:21:41;;;;;;;35.03;19.65;;;;;;;;;;5101969;28;20043;-91
2021/07/26 06:24:08;;;;;;;39.20;20.15;;;;;;;;;;5083940;28;20081;-91
2021/07/26 06:26:34;;;;;;;30.17;17.98;;;;;;;;;;5076095;28;20044;-90
2021/07/26 06:29:01;;;;;;;35.30;18.40;;;;;;;;;;5090785;28;20139;-90
2021/07/26 06:31:27;;;;;;;35.83;19.27;;;;;;;;;;5101495;28;20066;-90
2021/07/26 06:33:55;;;;;;;34.28;17.05;;;;;;;;;;5018743;28;20044;-91
2021/07/26 06:36:22;;;;;;;36.22;18.20;;;;;;;;;;5076654;28;20043;-91
2021/07/26 06:38:49;;;;;;;34.08;18.42;;;;;;;;;;5074060;28;20098;-90
2021/07/26 06:41:15;;;;;;;27.17;16.60;;;;;;;;;;5079505;28;20035;-91
2021/07/26 06:43:42;;;;;;;29.50;14.82;;;;;;;;;;5080898;28;20078;-90
2021/07/26 06:46:11;;;;;;;26.20;14.27;;;;;;;;;;5099970;28;20116;-89
2021/07/26 06:48:37;;;;;;;27.77;14.68;;;;;;;;;;5102365;28;20050;-90
2021/07/26 06:51:04;;;;;;;26.52;13.75;;;;;;;;;;5091483;28;20048;-91
2021/07/26 06:53:35;;;;;;;33.15;15.43;;;;;;;;;;5082894;28;20047;-90
2021/07/26 06:56:09;;;;;;;26.75;13.98;;;;;;;;;;5066565;28;20050;-90
2021/07/26 06:58:41;;;;;;;29.75;14.23;;;;;;;;;;5081245;28;20176;-90
2021/07/26 07:01:11;;;;;;;28.52;13.82;;;;;;;;;;5056157;28;20105;-90
2021/07/26 07:03:41;;;;;;;27.48;14.00;;;;;;;;;;5087948;28;20043;-91
2021/07/26 07:06:10;;;;;;;24.98;11.05;;;;;;;;;;5085676;28;20554;-90
2021/07/26 07:08:38;;;;;;;23.90;11.07;;;;;;;;;;5084938;28;20046;-90
2021/07/26 07:11:13;;;;;;;21.30;11.50;;;;;;;;;;5087710;28;20038;-90
2021/07/26 07:13:41;;;;;;;27.50;12.60;;;;;;;;;;5054317;28;20037;-91
2021/07/26 07:16:17;;;;;;;20.23;10.98;;;;;;;;;;5090383;28;20040;-91
2021/07/26 07:18:44;;;;;;;22.60;10.93;;;;;;;;;;5093491;28;20044;-89
2021/07/26 07:21:31;;;;;;;22.83;11.68;;;;;;;;;;5105975;28;20126;-91
2021/07/26 07:24:03;;;;;;;25.75;11.18;;;;;;;;;;5098223;28;20047;-90
2021/07/26 07:26:34;;;;;;;23.95;12.18;;;;;;;;;;5084586;28;20050;-90
2021/07/26 07:29:00;;;;;;;21.40;12.40;;;;;;;;;;5070140;28;20127;-90
2021/07/26 07:31:27;;;;;;;22.15;11.43;;;;;;;;;;5071996;28;20090;-91
2021/07/26 07:33:57;;;;;;;23.77;11.05;;;;;;;;;;5076580;28;20043;-90
2021/07/26 07:36:25;;;;;;;26.30;11.50;;;;;;;;;;5089838;28;20039;-91
2021/07/26 07:38:52;;;;;;;27.50;12.27;;;;;;;;;;5104651;28;20051;-92
2021/07/26 07:41:19;;;;;;;22.08;11.30;;;;;;;;;;5082633;28;20126;-91
2021/07/26 07:43:46;;;;;;;26.38;12.23;;;;;;;;;;5091395;28;20035;-89
2021/07/26 07:46:14;;;;;;;25.45;11.95;;;;;;;;;;5083685;28;20035;-90
2021/07/26 07:48:41;;;;;;;19.13;11.45;;;;;;;;;;5062663;28;20063;-91
2021/07/26 07:51:09;;;;;;;19.40;11.75;;;;;;;;;;5076084;28;20101;-91
2021/07/26 07:53:36;;;;;;;24.45;11.85;;;;;;;;;;5061903;28;20040;-91
2021/07/26 07:56:03;;;;;;;22.13;11.32;;;;;;;;;;5068024;28;20460;-91
2021/07/26 07:58:30;;;;;;;18.20;11.15;;;;;;;;;;5077724;28;20131;-90
2021/07/26 08:00:57;;;;;;;21.27;11.00;;;;;;;;;;5086946;28;20044;-91
2021/07/26 08:03:26;;;;;;;26.80;11.77;;;;;;;;;;5085845;28;20047;-91
2021/07/26 08:05:54;;;;;;;27.90;12.38;;;;;;;;;;5083908;28;20515;-91
2021/07/26 08:08:22;;;;;;;22.45;11.80;;;;;;;;;;5083112;28;20080;-91
2021/07/26 08:10:49;;;;;;;25.88;12.43;;;;;;;;;;5050665;28;20445;-91
2021/07/26 08:13:19;;;;;;;26.38;13.13;;;;;;;;;;5069307;28;20060;-90
2021/07/26 08:15:52;;;;;;;24.33;13.65;;;;;;;;;;5056430;28;20069;-91
2021/07/26 08:18:19;;;;;;;29.25;14.68;;;;;;;;;;5090618;28;20051;-91
2021/07/26 08:20:46;;;;;;;23.60;12.60;;;;;;;;;;5064203;28;20120;-90
2021/07/26 08:23:14;;;;;;;26.42;13.15;;;;;;;;;;5070431;28;20088;-91
2021/07/26 08:25:42;;;;;;;27.17;12.95;;;;;;;;;;5069523;28;20035;-91
2021/07/26 08:28:08;;;;;;;24.63;13.85;;;;;;;;;;5085592;28;20047;-91
2021/07/26 08:30:37;;;;;;;24.20;12.57;;;;;;;;;;5084436;28;20031;-90
2021/07/26 08:33:04;;;;;;;27.70;13.43;;;;;;;;;;5032785;28;20070;-88
2021/07/26 08:35:31;;;;;;;25.35;13.60;;;;;;;;;;5080611;28;20054;-88
2021/07/26 08:37:59;;;;;;;25.20;13.52;;;;;;;;;;5103178;28;20035;-88
2021/07/26 08:40:27;;;;;;;26.27;14.20;;;;;;;;;;5104768;28;20203;-87
2021/07/26 08:42:59;;;;;;;25.83;13.73;;;;;;;;;;5081914;28;20038;-86
2021/07/26 08:45:26;;;;;;;26.98;14.23;;;;;;;;;;5043197;28;20039;-83
2021/07/26 08:47:57;;;;;;;28.83;16.17;;;;;;;;;;5084511;28;20050;-84
2021/07/26 08:50:24;;;;;;;28.92;16.20;;;;;;;;;;5107102;28;20043;-86
2021/07/26 08:52:52;;;;;;;32.10;17.33;;;;;;;;;;5097583;28;20055;-85
2021/07/26 08:55:21;;;;;;;;;;;;;;;;;;5081314;28;20096;-84
2021/07/26 08:57:51;;;;;;;24.38;14.68;;;;;;;;;;5075586;28;20306;-84
2021/07/26 09:00:21;;;;;;;29.08;15.90;;;;;;;;;;5081963;28;20089;-85
2021/07/26 09:02:51;;;;;;;28.35;15.32;;;;;;;;;;5073866;28;20044;-85
2021/07/26 09:05:21;;;;;;;29.45;15.57;;;;;;;;;;5101757;28;20136;-86
2021/07/26 09:07:49;;;;;;;34.97;17.52;;;;;;;;;;5048616;28;20207;-85
2021/07/26 09:10:21;;;;;;;34.55;18.63;;;;;;;;;;5082297;28;20048;-84
2021/07/26 09:12:53;;;;;;;42.72;21.80;;;;;;;;;;5083076;28;20047;-84
2021/07/26 09:15:48;;;;;;;37.92;21.38;;;;;;;;;;5052571;28;20040;-87
2021/07/26 09:18:17;;;;;;;40.85;18.90;;;;;;;;;;5101494;28;20067;-83
2021/07/26 09:20:52;;;;;;;38.83;19.70;;;;;;;;;;5055888;28;20044;-84
2021/07/26 09:23:21;;;;;;;34.13;17.85;;;;;;;;;;5075010;28;20043;-85
2021/07/26 09:25:49;;;;;;;;;;;;;;;;;;5067833;28;20031;-85
2021/07/26 09:28:23;;;;;;;27.90;16.10;;;;;;;;;;5084888;28;19928;-85
2021/07/26 09:30:51;;;;;;;31.20;17.70;;;;;;;;;;5072018;28;20055;-84
2021/07/26 09:33:28;;;;;;;26.02;15.82;;;;;;;;;;5085979;28;20428;-84
2021/07/26 09:36:14;;;;;;;32.65;15.90;;;;;;;;;;5045810;28;20097;-85
2021/07/26 09:38:56;;;;;;;31.02;16.02;;;;;;;;;;5064035;28;20048;-84
2021/07/26 09:41:48;;;;;;;27.35;15.10;;;;;;;;;;5063838;28;20040;-83
2021/07/26 09:44:20;;;;;;;26.15;14.27;;;;;;;;;;5083020;28;20705;-84
2021/07/26 09:46:49;;;;;;;26.23;15.07;;;;;;;;;;5096824;28;20043;-85
2021/07/26 09:49:18;;;;;;;30.08;15.48;;;;;;;;;;5095408;28;20055;-84
2021/07/26 09:52:08;;;;;;;28.80;16.40;;;;;;;;;;5089305;28;20104;-85
2021/07/26 09:54:41;;;;;;;26.85;16.02;;;;;;;;;;5071034;28;20056;-85
2021/07/26 09:57:21;;;;;;;29.35;16.92;;;;;;;;;;5035938;28;20041;-84
2021/07/26 09:59:50;;;;;;;29.83;16.70;;;;;;;;;;5081096;28;20036;-85
2021/07/26 10:02:28;;;;;;;31.38;15.95;;;;;;;;;;5061452;28;20048;-84
2021/07/26 10:04:56;;;;;;;28.08;15.98;;;;;;;;;;5074594;28;20040;-84
2021/07/26 10:07:22;;;;;;;33.17;17.63;;;;;;;;;;5062582;28;20552;-85
2021/07/26 10:09:49;;;;;;;32.40;16.73;;;;;;;;;;5057907;28;20049;-86
2021/07/26 10:12:20;;;;;;;25.90;15.85;;;;;;;;;;5081409;28;20047;-85
2021/07/26 10:14:49;;;;;;;27.33;15.13;;;;;;;;;;5079136;28;20116;-85
2021/07/26 10:17:18;;;;;;;27.08;14.93;;;;;;;;;;5076484;28;20044;-86
2021/07/26 10:19:44;;;;;;;26.27;14.15;;;;;;;;;;5078204;28;20410;-86
2021/07/26 10:22:15;;;;;;;26.20;14.75;;;;;;;;;;5081076;28;20494;-86
2021/07/26 10:25:11;;;;;;;26.90;17.17;;;;;;;;;;5082634;28;20097;-86
2021/07/26 10:27:39;;;;;;;25.92;14.25;;;;;;;;;;5080173;28;20044;-86
2021/07/26 10:30:06;;;;;;;24.67;15.82;;;;;;;;;;5083621;28;20050;-86
2021/07/26 10:32:35;;;;;;;30.75;16.23;;;;;;;;;;5079663;28;20083;-85
2021/07/26 10:35:44;;;;;;;30.10;15.88;;;;;;;;;;5079220;28;20039;-86
2021/07/26 10:38:11;;;;;;;29.13;15.07;;;;;;;;;;5046900;28;20045;-85
2021/07/26 10:40:40;;;;;;;29.15;14.60;;;;;;;;;;5103218;28;20065;-85
2021/07/26 10:43:11;;;;;;;29.08;14.57;;;;;;;;;;5084716;28;20076;-86
2021/07/26 10:45:42;;;;;;;28.00;15.27;;;;;;;;;;5074390;28;20054;-86
2021/07/26 10:48:34;;;;;;;25.52;14.98;;;;;;;;;;5083889;28;20128;-86
2021/07/26 10:51:01;;;;;;;23.38;12.77;;;;;;;;;;5099006;28;20039;-87
2021/07/26 10:53:50;;;;;;;24.63;14.27;;;;;;;;;;5059629;28;20086;-86
2021/07/26 10:56:18;;;;;;;31.85;15.90;;;;;;;;;;5068588;28;20039;-85
2021/07/26 10:58:47;;;;;;;28.45;14.70;;;;;;;;;;5072728;28;20657;-86
2021/07/26 11:01:29;;;;;;;25.38;14.23;;;;;;;;;;5049922;28;20045;-86
2021/07/26 11:03:58;;;;;;;31.20;15.63;;;;;;;;;;5055838;28;20069;-84
2021/07/26 11:06:37;;;;;;;28.70;16.45;;;;;;;;;;5054094;28;20066;-85
2021/07/26 11:09:41;;;;;;;23.65;14.50;;;;;;;;;;5053680;28;20044;-85
2021/07/26 11:12:13;;;;;;;29.80;15.20;;;;;;;;;;5003774;28;20422;-85
2021/07/26 11:14:59;;;;;;;27.35;15.32;;;;;;;;;;5077985;28;20046;-86
2021/07/26 11:17:26;;;;;;;26.65;14.55;;;;;;;;;;5051881;28;20076;-85
2021/07/26 11:19:55;;;;;;;27.50;15.90;;;;;;;;;;5072243;28;20039;-86
2021/07/26 11:22:29;;;;;;;28.63;17.20;;;;;;;;;;5073252;28;20061;-86
2021/07/26 11:24:56;;;;;;;30.02;17.30;;;;;;;;;;5054554;28;20047;-84
2021/07/26 11:27:23;;;;;;;25.27;17.10;;;;;;;;;;5066712;28;20050;-86
2021/07/26 11:29:52;;;;;;;28.90;16.83;;;;;;;;;;5058417;28;20052;-85
2021/07/26 11:32:23;;;;;;;31.58;15.88;;;;;;;;;;5067853;28;20043;-86
2021/07/26 11:35:00;;;;;;;26.95;16.45;;;;;;;;;;5054068;28;20058;-84
2021/07/26 11:37:37;;;;;;;26.80;15.95;;;;;;;;;;5064416;28;20071;-85
2021/07/26 11:40:09;;;;;;;28.20;18.38;;;;;;;;;;5081298;28;20070;-86
2021/07/26 11:42:40;;;;;;;25.92;16.70;;;;;;;;;;5078978;28;20111;-87
2021/07/26 11:45:11;;;;;;;31.60;16.08;;;;;;;;;;5087451;28;20036;-85
2021/07/26 11:47:43;;;;;;;25.75;15.82;;;;;;;;;;5105104;28;20043;-85
2021/07/26 11:50:10;;;;;;;28.95;15.70;;;;;;;;;;5095668;28;20506;-87
2021/07/26 11:52:38;;;;;;;29.38;16.38;;;;;;;;;;5070493;28;20540;-85
2021/07/26 11:55:18;;;;;;;28.65;16.10;;;;;;;;;;5084606;28;20474;-86
2021/07/26 11:58:10;;;;;;;27.67;16.58;;;;;;;;;;5064627;27;20039;-86
2021/07/26 12:00:49;;;;;;;37.80;21.48;;;;;;;;;;5077353;28;20052;-87
2021/07/26 12:03:21;;;;;;;56.60;40.65;;;;;;;;;;5085208;28;20051;-86
2021/07/26 12:05:48;;;;;;;75.68;58.10;;;;;;;;;;5039471;28;20075;-89
2021/07/26 12:08:20;;;;;;;86.05;63.30;;;;;;;;;;5092135;28;20042;-87
2021/07/26 12:10:47;;;;;;;84.53;62.05;;;;;;;;;;5101236;28;20073;-86
2021/07/26 12:13:19;;;;;;;68.78;47.92;;;;;;;;;;5070905;28;20489;-88
2021/07/26 12:15:49;;;;;;;65.90;47.50;;;;;;;;;;5077381;28;20044;-87
2021/07/26 12:18:17;;;;;;;56.50;36.75;;;;;;;;;;5065572;28;20058;-86
2021/07/26 12:21:05;;;;;;;51.65;33.05;;;;;;;;;;5071591;28;20044;-88
2021/07/26 12:23:40;;;;;;;47.40;30.40;;;;;;;;;;5091659;28;20097;-87
2021/07/26 12:26:08;;;;;;;43.08;29.33;;;;;;;;;;5047453;28;20044;-89
2021/07/26 12:28:53;;;;;;;43.42;28.73;;;;;;;;;;5057364;28;20067;-89
2021/07/26 12:31:32;;;;;;;32.63;18.60;;;;;;;;;;5038680;28;21319;-88
2021/07/26 12:34:11;;;;;;;33.97;22.75;;;;;;;;;;5066274;28;20099;-88
2021/07/26 12:36:46;;;;;;;31.10;21.83;;;;;;;;;;5085484;28;20185;-89
2021/07/26 12:39:15;;;;;;;39.58;27.92;;;;;;;;;;5029871;28;20514;-89
2021/07/26 12:41:49;;;;;;;52.30;26.52;;;;;;;;;;5087842;28;20044;-88
2021/07/26 12:44:26;;;;;;;40.47;25.58;;;;;;;;;;5106487;28;20043;-89
2021/07/26 12:46:54;;;;;;;40.25;22.95;;;;;;;;;;5081801;28;20044;-88
2021/07/26 12:49:23;;;;;;;28.10;19.00;;;;;;;;;;5054004;28;20050;-89
2021/07/26 12:51:52;;;;;;;27.00;15.63;;;;;;;;;;5064342;28;20058;-87
2021/07/26 12:54:20;;;;;;;28.13;15.68;;;;;;;;;;5102756;28;20031;-89
2021/07/26 12:56:53;;;;;;;22.30;14.45;;;;;;;;;;5090351;28;20126;-91
2021/07/26 12:59:20;;;;;;;26.20;15.35;;;;;;;;;;5051300;28;20066;-89
2021/07/26 13:01:50;;;;;;;27.52;13.25;;;;;;;;;;5060969;28;20047;-89
2021/07/26 13:04:17;;;;;;;29.08;19.80;;;;;;;;;;5084966;28;20042;-88
2021/07/26 13:06:45;;;;;;;36.33;22.10;;;;;;;;;;5072863;28;20043;-91
2021/07/26 13:09:17;;;;;;;39.65;24.15;;;;;;;;;;5055199;28;20082;-88
2021/07/26 13:11:43;;;;;;;36.28;24.20;;;;;;;;;;5079452;28;20039;-90
2021/07/26 13:14:13;;;;;;;38.88;24.58;;;;;;;;;;5107951;28;20043;-91
2021/07/26 13:16:39;;;;;;;33.65;23.40;;;;;;;;;;5076436;28;20032;-91
2021/07/26 13:19:08;;;;;;;36.30;23.42;;;;;;;;;;5087663;28;20034;-90
2021/07/26 13:21:34;;;;;;;36.55;24.25;;;;;;;;;;5093618;28;20044;-87
2021/07/26 13:24:01;;;;;;;39.45;25.67;;;;;;;;;;5060134;28;20040;-88
2021/07/26 13:26:27;;;;;;;37.20;23.63;;;;;;;;;;5098666;28;20061;-89
2021/07/26 13:28:54;;;;;;;36.78;23.98;;;;;;;;;;5094746;28;20052;-89
2021/07/26 13:31:20;;;;;;;36.53;23.98;;;;;;;;;;5096193;28;20055;-89
2021/07/26 13:33:49;;;;;;;38.20;26.02;;;;;;;;;;5074538;28;20134;-89
2021/07/26 13:36:16;;;;;;;38.30;23.75;;;;;;;;;;5084268;28;20039;-89
2021/07/26 13:38:43;;;;;;;41.42;25.13;;;;;;;;;;5082885;28;20036;-89
2021/07/26 13:41:11;;;;;;;31.42;22.20;;;;;;;;;;5089342;28;20497;-88
2021/07/26 13:43:37;;;;;;;38.00;25.05;;;;;;;;;;5068856;28;20056;-85
2021/07/26 13:46:04;;;;;;;41.20;26.80;;;;;;;;;;5080702;28;20148;-84
2021/07/26 13:48:31;;;;;;;45.53;27.10;;;;;;;;;;5087222;28;20055;-87
2021/07/26 13:51:00;;;;;;;49.53;29.40;;;;;;;;;;5058461;28;20047;-86
2021/07/26 13:53:30;;;;;;;45.75;27.98;;;;;;;;;;5099696;28;20043;-86
2021/07/26 13:55:56;;;;;;;37.40;25.95;;;;;;;;;;5096755;28;20039;-87
2021/07/26 13:58:23;;;;;;;46.28;28.98;;;;;;;;;;5058204;28;21856;-85
2021/07/26 14:00:52;;;;;;;43.67;29.13;;;;;;;;;;5055667;28;20127;-88
2021/07/26 14:03:19;;;;;;;44.88;27.58;;;;;;;;;;5042132;28;20039;-89
2021/07/26 14:05:45;;;;;;;38.75;26.15;;;;;;;;;;5090016;28;20089;-87
2021/07/26 14:08:13;;;;;;;34.63;23.90;;;;;;;;;;5047446;28;20062;-88
2021/07/26 14:10:40;;;;;;;41.45;25.88;;;;;;;;;;5061401;28;20044;-90
2021/07/26 14:13:09;;;;;;;42.63;24.88;;;;;;;;;;5073333;28;20501;-88
2021/07/26 14:15:40;;;;;;;35.13;23.77;;;;;;;;;;5085545;28;20049;-88
2021/07/26 14:18:06;;;;;;;39.75;25.80;;;;;;;;;;5074687;28;20043;-89
2021/07/26 14:20:34;;;;;;;42.00;27.92;;;;;;;;;;5072488;28;20093;-88
2021/07/26 14:23:01;;;;;;;50.38;30.40;;;;;;;;;;5070729;28;20043;-86
2021/07/26 14:25:29;;;;;;;47.25;27.00;;;;;;;;;;5041320;28;20304;-87
2021/07/26 14:27:55;;;;;;;39.28;26.85;;;;;;;;;;5042339;28;20055;-88
2021/07/26 14:30:22;;;;;;;47.97;25.55;;;;;;;;;;5014224;28;20055;-87
2021/07/26 14:32:48;;;;;;;56.92;37.00;;;;;;;;;;5099739;28;20537;-85
2021/07/26 14:35:15;;;;;;;92.28;67.78;;;;;;;;;;5094011;28;20039;-85